Topsham, ME

5:31 PM EST on January 25, 2015 (GMT -0500)
Ivanhoe Hollow | Change Station
CLOSE
Current Station
Personal Weather Station
Location: Topsham, ME
Elevation: 121 ft
Nearby Weather Stations

Elev 121 ft 43.95 °N, 70.00 °W | Updated 9 minutes ago

Clear
Clear
19.7 °F
Feels Like 20 °F
N
0.0
Wind Variable Wind from North
Gusts 4.0 mph

Today
High -- | Low -- °F
--% Chance of Precip.
Yesterday
High -- | Low -- °F
Precip. -- in
7:04 AM 4:40 PM
Waxing Crescent, 36% visible
Pressure 29.75 in
Visibility 10.0 miles
Clouds Clear
Windchill 20 °F
Dew Point 2 °F
Humidity 47%
Rainfall 0.24 in
Snow Depth Not available.
UV 0 out of 12
Pollen .10 out of 12
Air Quality Not available.
Flu Activity Not available.
METAR KIWI 252153Z AUTO 28008KT 230V320 10SM CLR M06/M16 A2975 RMK AO2 SLP074 T10561161

More Conditions Fewer Conditions

Pressure 29.75 in
Visibility 10.0 miles
Clouds Clear
Windchill 20 °F
Dew Point 2 °F
Humidity 47%
Rainfall 0.24 in
Snow Depth Not available.
UV 0 out of 12
Pollen .10 out of 12
Air Quality Not available.
Flu Activity Not available.
METAR KIWI 252153Z AUTO 28008KT 230V320 10SM CLR M06/M16 A2975 RMK AO2 SLP074 T10561161

More Conditions Fewer Conditions

10-Day Weather Forecast

Almanac

Astronomy

Jan. 25, 2015 Rise Set
Actual Time
Civil Twilight
Nautical Twilight
Astronomical Twilight
Moon
Length of Visible Light
Length of Day
Tomorrow will be .
, % of the Moon is Illuminated

Today's Extremes

State Highs State Lows

Community

WunderPhotos

Upload Photos

1,790,076 photos uploaded!

WunderBlogs® & News

Nearby

Air Quality

  Air Quality AQ Index Pollutant
Not available.

Snow Depth

Station Depth Elevation

Earthquake Activity

City Distance Mag. Time & Date
Minimum magnitude displayed is 2.5.

Coastal Water Temperatures

Place Temperature

Nearby Weather Stations